Terminal Aerodrome Forecast
Issued by NWS

Home | Current Version | Previous Version | Text Only | Print | Product List | Glossary On
Versions: 1 2 3 4 5 6 7 8 9 10 11 12 13 14
000
FTUS42 TJSJ 201136 CCA
TAFJBQ
TAF COR
TJBQ 201136Z 2012/2112 08020G30KT P6SM FEW030 SCT050
      TEMPO 2012/2013 BKN025
     FM202300 10012KT P6SM SCT060
      AMD NOT SKED 2102/2111=

USA.gov is the U.S. government's official web portal to all federal, state and local government web resources and services.